createdAt,value
2019-04-05T00:00:41.499Z,5.60
2019-04-05T00:05:47.465Z,6.12
2019-04-05T00:10:53.409Z,6.08
2019-04-05T00:15:59.425Z,5.69
2019-04-05T00:21:05.433Z,4.79
2019-04-05T00:26:11.414Z,5.96
2019-04-05T00:31:17.430Z,6.27
2019-04-05T00:36:23.390Z,6.55
2019-04-05T00:41:29.369Z,6.70
2019-04-05T00:46:35.339Z,6.26
2019-04-05T00:51:41.339Z,6.68
2019-04-05T00:56:47.332Z,6.39
2019-04-05T01:01:53.344Z,9.98
2019-04-05T01:06:59.326Z,6.88
2019-04-05T01:12:05.334Z,6.60
2019-04-05T01:17:11.332Z,6.84
2019-04-05T01:22:17.360Z,10.28
2019-04-05T01:27:23.373Z,6.71
2019-04-05T01:32:29.313Z,6.98
2019-04-05T01:37:35.280Z,6.99
2019-04-05T01:42:41.233Z,7.22
2019-04-05T01:47:47.209Z,6.89
2019-04-05T01:52:53.160Z,7.20
2019-04-05T01:57:59.162Z,6.99
2019-04-05T02:03:05.131Z,7.51
2019-04-05T02:08:11.113Z,7.13
2019-04-05T02:13:17.131Z,7.09
2019-04-05T02:18:23.072Z,7.28
2019-04-05T02:23:29.042Z,7.31
2019-04-05T02:28:35.022Z,7.26
2019-04-05T02:33:40.979Z,7.70
2019-04-05T02:38:46.945Z,7.61
2019-04-05T02:43:52.931Z,7.16
2019-04-05T02:48:58.911Z,7.54
2019-04-05T02:54:04.907Z,8.05
2019-04-05T02:59:10.888Z,8.15
2019-04-05T03:04:16.858Z,8.97
2019-04-05T03:09:22.852Z,9.80
2019-04-05T03:14:28.851Z,9.66
2019-04-05T03:19:34.848Z,9.21
2019-04-05T03:24:40.831Z,8.39
2019-04-05T03:29:46.799Z,8.76
2019-04-05T03:34:52.759Z,7.53
2019-04-05T03:39:58.738Z,8.01
2019-04-05T03:45:04.714Z,8.14
2019-04-05T03:50:10.703Z,7.81
2019-04-05T03:55:16.720Z,7.70
2019-04-05T04:00:22.742Z,8.32
2019-04-05T04:05:28.714Z,8.53
2019-04-05T04:10:34.697Z,9.16
2019-04-05T04:15:40.669Z,9.88
2019-04-05T04:20:46.653Z,9.44
2019-04-05T04:25:52.611Z,9.18
2019-04-05T04:30:58.600Z,9.19
2019-04-05T04:36:04.575Z,9.57
2019-04-05T04:41:10.598Z,9.04
2019-04-05T04:46:16.583Z,10.06
2019-04-05T04:51:22.659Z,9.56
2019-04-05T04:56:28.707Z,9.94
2019-04-05T05:01:34.762Z,9.71
2019-04-05T05:06:41.160Z,9.92
2019-04-05T05:11:47.170Z,9.82
2019-04-05T05:16:53.140Z,9.71
2019-04-05T05:21:59.277Z,9.98
2019-04-05T05:27:05.256Z,10.53
2019-04-05T05:32:11.216Z,10.43
2019-04-05T05:37:25.973Z,9.96
2019-04-05T05:42:21.465Z,9.75
2019-04-05T05:47:27.442Z,9.71
2019-04-05T05:52:33.608Z,10.16
2019-04-05T05:57:39.724Z,10.63
2019-04-05T06:02:48.280Z,9.98
2019-04-05T06:07:51.350Z,9.77
2019-04-05T06:12:58.755Z,9.82
2019-04-05T06:18:04.967Z,10.53
2019-04-05T06:23:08.246Z,10.58
2019-04-05T06:28:14.480Z,10.12
2019-04-05T06:33:30.993Z,11.07
2019-04-05T06:38:26.045Z,10.31
2019-04-05T06:43:32.052Z,10.90
2019-04-05T06:48:38.053Z,10.70
2019-04-05T06:53:44.052Z,11.39
2019-04-05T06:58:50.045Z,11.24
2019-04-05T07:03:56.008Z,10.99
2019-04-05T07:09:02.000Z,11.18
2019-04-05T07:14:08.150Z,10.21
2019-04-05T07:19:14.137Z,12.25
2019-04-05T07:24:20.083Z,12.87
2019-04-05T07:29:26.074Z,13.97
2019-04-05T07:34:32.055Z,14.80
2019-04-05T07:39:38.007Z,14.24
2019-04-05T07:44:44.022Z,14.92
2019-04-05T07:49:50.001Z,15.05
2019-04-05T07:54:55.993Z,15.95
2019-04-05T08:00:01.974Z,15.36
2019-04-05T08:05:07.951Z,15.44
2019-04-05T08:10:13.942Z,15.18
2019-04-05T08:15:19.949Z,15.64
2019-04-05T08:20:25.923Z,13.92
2019-04-05T08:25:31.942Z,12.85
2019-04-05T08:30:37.947Z,12.79
2019-04-05T08:35:43.904Z,11.74
2019-04-05T08:40:49.970Z,10.41
2019-04-05T08:45:55.923Z,9.26
2019-04-05T08:51:01.886Z,8.85
2019-04-05T08:56:07.914Z,9.42
2019-04-05T09:01:13.889Z,9.10
2019-04-05T09:06:19.877Z,9.09
2019-04-05T09:11:25.980Z,9.11
2019-04-05T09:16:32.024Z,9.06
2019-04-05T09:21:40.402Z,9.71
2019-04-05T09:26:43.466Z,8.89
2019-04-05T09:31:49.470Z,9.88
2019-04-05T09:36:55.543Z,9.24
2019-04-05T09:42:01.563Z,9.55
2019-04-05T09:47:07.538Z,9.07
2019-04-05T09:52:13.505Z,9.22
2019-04-05T09:57:19.495Z,8.65
2019-04-05T10:02:25.513Z,8.31
2019-04-05T10:07:31.503Z,6.74
2019-04-05T10:12:37.485Z,7.00
2019-04-05T10:17:43.439Z,7.52
2019-04-05T10:22:49.400Z,7.67
2019-04-05T10:27:55.435Z,6.90
2019-04-05T10:33:01.667Z,6.84
2019-04-05T10:38:07.673Z,7.22
2019-04-05T10:43:13.698Z,7.27
2019-04-05T10:48:19.702Z,8.13
2019-04-05T10:53:25.672Z,6.98
2019-04-05T10:58:31.630Z,6.77
2019-04-05T11:03:37.629Z,7.09
2019-04-05T11:08:43.627Z,6.65
2019-04-05T11:13:49.621Z,7.12
2019-04-05T11:18:55.603Z,6.87
2019-04-05T11:24:01.558Z,6.36
2019-04-05T11:29:07.630Z,6.44
2019-04-05T11:34:13.603Z,6.27
2019-04-05T11:39:19.604Z,6.38
2019-04-05T11:44:25.578Z,6.13
2019-04-05T11:49:31.595Z,6.37
2019-04-05T11:54:46.933Z,6.05
2019-04-05T11:59:43.020Z,6.23
2019-04-05T12:04:49.029Z,7.51
2019-04-05T12:09:55.075Z,5.56
2019-04-05T12:15:01.167Z,5.72
2019-04-05T12:20:07.135Z,6.23
2019-04-05T12:25:13.189Z,6.19
2019-04-05T12:30:19.181Z,6.62
2019-04-05T12:35:25.333Z,6.34
2019-04-05T12:40:31.319Z,6.31
2019-04-05T12:45:37.332Z,6.70
2019-04-05T12:50:44.901Z,7.05
2019-04-05T12:55:48.844Z,6.86
2019-04-05T13:00:56.204Z,7.06
2019-04-05T13:06:00.504Z,6.88
2019-04-05T13:11:06.485Z,6.82
2019-04-05T13:16:12.488Z,6.85
2019-04-05T13:21:18.473Z,6.26
2019-04-05T13:26:26.391Z,6.66
2019-04-05T13:31:30.008Z,6.19
2019-04-05T13:36:35.973Z,8.06
2019-04-05T13:41:42.000Z,7.45
2019-04-05T13:46:48.120Z,7.22
2019-04-05T13:51:54.118Z,6.80
2019-04-05T13:57:00.158Z,7.18
2019-04-05T14:02:06.691Z,6.80
2019-04-05T14:07:11.712Z,7.31
2019-04-05T14:12:17.734Z,6.90
2019-04-05T14:17:23.860Z,7.40
2019-04-05T14:22:29.838Z,6.42
2019-04-05T14:27:35.901Z,6.85
2019-04-05T14:32:41.975Z,6.65
2019-04-05T14:37:47.987Z,6.51
2019-04-05T14:42:54.026Z,6.83
2019-04-05T14:48:00.006Z,6.50
2019-04-05T14:53:06.032Z,7.85
2019-04-05T14:58:11.994Z,8.24
2019-04-05T15:03:18.071Z,7.22
2019-04-05T15:08:24.075Z,7.39
2019-04-05T15:13:30.071Z,7.14
2019-04-05T15:18:36.078Z,7.25
2019-04-05T15:23:45.212Z,7.03
2019-04-05T15:28:48.065Z,7.12
2019-04-05T15:33:55.593Z,7.51
2019-04-05T15:39:01.609Z,7.59
2019-04-05T15:44:05.656Z,7.69
2019-04-05T15:49:11.600Z,8.01
2019-04-05T15:54:17.831Z,7.92
2019-04-05T15:59:23.839Z,8.11
2019-04-05T16:04:29.844Z,8.15
2019-04-05T16:09:35.870Z,8.55
2019-04-05T16:14:41.860Z,8.74
2019-04-05T16:19:47.892Z,8.12
2019-04-05T16:24:53.943Z,8.38
2019-04-05T16:29:59.954Z,8.93
2019-04-05T16:35:06.204Z,8.56
2019-04-05T16:40:12.262Z,8.57
2019-04-05T16:45:18.289Z,9.45
2019-04-05T16:50:24.574Z,9.02
2019-04-05T16:55:30.639Z,12.93
2019-04-05T17:00:36.723Z,12.08
2019-04-05T17:05:42.750Z,16.33
2019-04-05T17:10:48.763Z,10.20
2019-04-05T17:15:54.782Z,10.18
2019-04-05T17:21:00.888Z,11.09
2019-04-05T17:26:06.971Z,10.91
2019-04-05T17:31:13.038Z,11.54
2019-04-05T17:36:19.031Z,13.54
2019-04-05T17:41:25.278Z,12.44
2019-04-05T17:46:31.365Z,12.33
2019-04-05T17:51:37.495Z,12.43
2019-04-05T17:56:43.499Z,14.68
2019-04-05T18:01:49.594Z,13.04
2019-04-05T18:06:55.620Z,12.84
2019-04-05T18:12:01.719Z,13.42
2019-04-05T18:17:07.861Z,13.15
2019-04-05T18:22:13.917Z,13.62
2019-04-05T18:27:19.930Z,12.99
2019-04-05T18:32:26.045Z,12.77
2019-04-05T18:37:34.995Z,13.15
2019-04-05T18:42:37.603Z,13.75
2019-04-05T18:47:43.676Z,13.85
2019-04-05T18:52:49.765Z,14.05
2019-04-05T18:57:55.793Z,13.45
2019-04-05T19:03:01.829Z,13.99
2019-04-05T19:08:07.892Z,13.80
2019-04-05T19:13:13.904Z,14.00
2019-04-05T19:18:20.089Z,13.71
2019-04-05T19:23:26.076Z,14.55
2019-04-05T19:28:32.197Z,13.61
2019-04-05T19:48:55.082Z,13.75
2019-04-05T19:54:01.626Z,13.67
2019-04-05T19:59:06.620Z,13.92
2019-04-05T20:04:12.681Z,13.33
2019-04-05T20:09:18.776Z,13.87
2019-04-05T20:14:24.781Z,13.77
2019-04-05T20:19:30.867Z,15.88
2019-04-05T20:24:36.910Z,13.23
2019-04-05T20:29:42.912Z,13.80
2019-04-05T20:34:48.907Z,13.43
2019-04-05T20:39:55.010Z,13.60
2019-04-05T20:45:01.343Z,13.34
2019-04-05T20:50:07.402Z,13.78
2019-04-05T20:55:13.426Z,12.98
2019-04-05T21:00:19.482Z,12.93
2019-04-05T21:05:25.844Z,12.99
2019-04-05T21:10:31.555Z,13.65
2019-04-05T21:15:37.544Z,13.21
2019-04-05T21:20:43.538Z,12.90
2019-04-05T21:25:49.530Z,12.99
2019-04-05T21:30:55.634Z,13.04
2019-04-05T21:36:01.613Z,13.13
2019-04-05T21:41:07.610Z,12.86
2019-04-05T21:46:13.655Z,12.59
2019-04-05T21:51:19.636Z,12.98
2019-04-05T21:56:25.663Z,12.73
2019-04-05T22:01:31.692Z,11.92
2019-04-05T22:06:37.711Z,12.71
2019-04-05T22:11:43.696Z,12.43
2019-04-05T22:16:49.726Z,12.42
2019-04-05T22:21:55.747Z,11.94
2019-04-05T22:27:01.752Z,12.52
2019-04-05T22:32:07.729Z,12.40
2019-04-05T22:37:13.747Z,12.03
2019-04-05T22:42:19.733Z,11.88
2019-04-05T22:47:25.751Z,11.99
2019-04-05T22:52:31.791Z,12.43
2019-04-05T22:57:37.823Z,12.45
2019-04-05T23:02:43.919Z,12.05
2019-04-05T23:07:49.974Z,12.13
2019-04-05T23:12:55.980Z,11.66
2019-04-05T23:18:02.098Z,12.01
2019-04-05T23:23:08.103Z,12.28
2019-04-05T23:28:14.202Z,12.23
2019-04-05T23:33:20.176Z,11.92
2019-04-05T23:38:26.164Z,11.96
2019-04-05T23:43:32.147Z,12.00
2019-04-05T23:48:38.157Z,11.17
2019-04-05T23:53:44.296Z,10.66
2019-04-05T23:58:50.351Z,10.72
